sensor_id;sensor_type;location;lat;lon;timestamp;P1;durP1;ratioP1;P2;durP2;ratioP2
809;SDS011;387;48.772;9.186;2023-03-01T00:01:09;30.27;;;14.73;;
809;SDS011;387;48.772;9.186;2023-03-01T00:03:37;28.10;;;14.48;;
809;SDS011;387;48.772;9.186;2023-03-01T00:06:03;31.87;;;15.50;;
809;SDS011;387;48.772;9.186;2023-03-01T00:08:29;34.55;;;15.30;;
809;SDS011;387;48.772;9.186;2023-03-01T00:11:06;30.00;;;14.95;;
809;SDS011;387;48.772;9.186;2023-03-01T00:13:32;29.10;;;13.77;;
809;SDS011;387;48.772;9.186;2023-03-01T00:16:01;33.50;;;15.70;;
809;SDS011;387;48.772;9.186;2023-03-01T00:18:28;29.98;;;14.07;;
809;SDS011;387;48.772;9.186;2023-03-01T00:20:53;33.93;;;15.87;;
809;SDS011;387;48.772;9.186;2023-03-01T00:23:22;31.13;;;14.90;;
809;SDS011;387;48.772;9.186;2023-03-01T00:25:48;27.70;;;14.13;;
809;SDS011;387;48.772;9.186;2023-03-01T00:28:18;29.83;;;15.25;;
809;SDS011;387;48.772;9.186;2023-03-01T00:30:44;32.35;;;16.65;;
809;SDS011;387;48.772;9.186;2023-03-01T00:33:10;34.40;;;14.90;;
809;SDS011;387;48.772;9.186;2023-03-01T00:35:35;33.93;;;15.27;;
809;SDS011;387;48.772;9.186;2023-03-01T00:38:01;28.37;;;14.33;;
809;SDS011;387;48.772;9.186;2023-03-01T00:40:28;29.20;;;15.25;;
809;SDS011;387;48.772;9.186;2023-03-01T00:42:54;28.98;;;15.27;;
809;SDS011;387;48.772;9.186;2023-03-01T00:45:20;26.77;;;13.60;;
809;SDS011;387;48.772;9.186;2023-03-01T00:47:46;33.83;;;15.32;;
809;SDS011;387;48.772;9.186;2023-03-01T00:50:13;34.95;;;15.27;;
809;SDS011;387;48.772;9.186;2023-03-01T00:52:38;33.13;;;15.10;;
809;SDS011;387;48.772;9.186;2023-03-01T00:55:04;31.27;;;15.03;;
809;SDS011;387;48.772;9.186;2023-03-01T00:57:30;30.85;;;14.52;;
809;SDS011;387;48.772;9.186;2023-03-01T00:59:56;37.37;;;16.07;;
809;SDS011;387;48.772;9.186;2023-03-01T01:02:22;30.60;;;14.83;;
809;SDS011;387;48.772;9.186;2023-03-01T01:04:48;32.77;;;15.53;;
809;SDS011;387;48.772;9.186;2023-03-01T01:07:14;33.97;;;15.30;;
809;SDS011;387;48.772;9.186;2023-03-01T01:09:40;31.92;;;14.57;;
809;SDS011;387;48.772;9.186;2023-03-01T01:12:06;32.40;;;15.37;;
809;SDS011;387;48.772;9.186;2023-03-01T01:14:32;32.60;;;14.73;;
809;SDS011;387;48.772;9.186;2023-03-01T01:16:57;32.53;;;14.30;;
809;SDS011;387;48.772;9.186;2023-03-01T01:19:23;38.37;;;15.43;;
809;SDS011;387;48.772;9.186;2023-03-01T01:21:50;31.63;;;15.20;;
809;SDS011;387;48.772;9.186;2023-03-01T01:24:16;36.10;;;16.13;;
809;SDS011;387;48.772;9.186;2023-03-01T01:26:42;37.13;;;15.70;;
809;SDS011;387;48.772;9.186;2023-03-01T01:29:08;32.70;;;15.43;;
809;SDS011;387;48.772;9.186;2023-03-01T01:31:35;33.53;;;15.27;;
809;SDS011;387;48.772;9.186;2023-03-01T01:34:03;30.00;;;14.27;;
809;SDS011;387;48.772;9.186;2023-03-01T01:36:30;31.95;;;15.80;;
809;SDS011;387;48.772;9.186;2023-03-01T01:38:56;35.03;;;17.02;;
809;SDS011;387;48.772;9.186;2023-03-01T01:41:22;29.30;;;14.80;;
809;SDS011;387;48.772;9.186;2023-03-01T01:43:49;41.90;;;17.38;;
809;SDS011;387;48.772;9.186;2023-03-01T01:46:40;33.03;;;15.45;;
809;SDS011;387;48.772;9.186;2023-03-01T01:49:49;31.92;;;15.57;;
809;SDS011;387;48.772;9.186;2023-03-01T01:52:20;30.60;;;13.55;;
809;SDS011;387;48.772;9.186;2023-03-01T01:54:57;29.02;;;14.43;;
809;SDS011;387;48.772;9.186;2023-03-01T01:57:51;35.78;;;16.30;;
809;SDS011;387;48.772;9.186;2023-03-01T02:00:22;31.45;;;15.25;;
809;SDS011;387;48.772;9.186;2023-03-01T02:02:50;28.20;;;15.57;;
809;SDS011;387;48.772;9.186;2023-03-01T02:08:11;31.55;;;14.80;;
809;SDS011;387;48.772;9.186;2023-03-01T02:10:38;35.28;;;15.95;;
809;SDS011;387;48.772;9.186;2023-03-01T02:13:04;28.70;;;15.07;;
809;SDS011;387;48.772;9.186;2023-03-01T02:15:33;31.13;;;15.50;;
809;SDS011;387;48.772;9.186;2023-03-01T02:18:00;29.70;;;15.02;;
809;SDS011;387;48.772;9.186;2023-03-01T02:23:10;30.30;;;14.68;;
809;SDS011;387;48.772;9.186;2023-03-01T02:30:40;32.45;;;15.32;;
809;SDS011;387;48.772;9.186;2023-03-01T02:33:28;25.85;;;14.68;;
809;SDS011;387;48.772;9.186;2023-03-01T02:35:58;35.30;;;15.73;;
809;SDS011;387;48.772;9.186;2023-03-01T02:38:26;35.03;;;16.35;;
809;SDS011;387;48.772;9.186;2023-03-01T02:40:53;35.05;;;14.98;;
809;SDS011;387;48.772;9.186;2023-03-01T02:43:22;27.35;;;14.57;;
809;SDS011;387;48.772;9.186;2023-03-01T02:45:52;36.65;;;15.90;;
809;SDS011;387;48.772;9.186;2023-03-01T02:48:22;28.08;;;14.68;;
809;SDS011;387;48.772;9.186;2023-03-01T02:53:38;30.00;;;16.05;;
809;SDS011;387;48.772;9.186;2023-03-01T02:56:04;41.65;;;16.63;;
809;SDS011;387;48.772;9.186;2023-03-01T02:58:30;33.40;;;15.57;;
809;SDS011;387;48.772;9.186;2023-03-01T03:00:56;36.73;;;16.87;;
809;SDS011;387;48.772;9.186;2023-03-01T03:03:21;35.03;;;16.60;;
809;SDS011;387;48.772;9.186;2023-03-01T03:05:48;32.57;;;15.63;;
809;SDS011;387;48.772;9.186;2023-03-01T03:08:14;39.50;;;16.92;;
809;SDS011;387;48.772;9.186;2023-03-01T03:10:48;32.63;;;14.98;;
809;SDS011;387;48.772;9.186;2023-03-01T03:13:14;32.30;;;15.40;;
809;SDS011;387;48.772;9.186;2023-03-01T03:15:40;35.05;;;16.00;;
809;SDS011;387;48.772;9.186;2023-03-01T03:18:09;40.78;;;16.85;;
809;SDS011;387;48.772;9.186;2023-03-01T03:20:38;35.00;;;17.05;;
809;SDS011;387;48.772;9.186;2023-03-01T03:23:05;38.40;;;16.02;;
809;SDS011;387;48.772;9.186;2023-03-01T03:25:31;37.83;;;16.80;;
809;SDS011;387;48.772;9.186;2023-03-01T03:27:57;36.63;;;15.97;;
809;SDS011;387;48.772;9.186;2023-03-01T03:30:24;37.35;;;18.08;;
809;SDS011;387;48.772;9.186;2023-03-01T03:32:51;32.30;;;15.20;;
809;SDS011;387;48.772;9.186;2023-03-01T03:35:18;35.33;;;16.20;;
809;SDS011;387;48.772;9.186;2023-03-01T03:37:49;36.72;;;16.33;;
809;SDS011;387;48.772;9.186;2023-03-01T03:40:29;33.03;;;16.83;;
809;SDS011;387;48.772;9.186;2023-03-01T03:42:57;37.15;;;16.48;;
809;SDS011;387;48.772;9.186;2023-03-01T03:45:23;38.33;;;17.03;;
809;SDS011;387;48.772;9.186;2023-03-01T03:47:48;43.90;;;18.13;;
809;SDS011;387;48.772;9.186;2023-03-01T03:50:14;37.30;;;18.33;;
809;SDS011;387;48.772;9.186;2023-03-01T03:52:41;37.03;;;16.42;;
809;SDS011;387;48.772;9.186;2023-03-01T03:55:08;41.63;;;17.63;;
809;SDS011;387;48.772;9.186;2023-03-01T03:57:38;37.78;;;16.92;;
809;SDS011;387;48.772;9.186;2023-03-01T04:00:06;43.20;;;17.42;;
809;SDS011;387;48.772;9.186;2023-03-01T04:02:42;31.83;;;17.23;;
809;SDS011;387;48.772;9.186;2023-03-01T04:05:08;36.67;;;17.95;;
809;SDS011;387;48.772;9.186;2023-03-01T04:07:36;37.17;;;17.77;;
809;SDS011;387;48.772;9.186;2023-03-01T04:10:03;33.60;;;16.45;;
809;SDS011;387;48.772;9.186;2023-03-01T04:12:29;36.33;;;17.13;;
809;SDS011;387;48.772;9.186;2023-03-01T04:14:55;38.37;;;17.00;;
809;SDS011;387;48.772;9.186;2023-03-01T04:17:21;36.93;;;16.60;;
809;SDS011;387;48.772;9.186;2023-03-01T04:19:46;28.70;;;16.27;;
809;SDS011;387;48.772;9.186;2023-03-01T04:22:14;37.42;;;17.98;;
809;SDS011;387;48.772;9.186;2023-03-01T04:24:43;32.08;;;15.63;;
809;SDS011;387;48.772;9.186;2023-03-01T04:27:10;37.17;;;17.23;;
809;SDS011;387;48.772;9.186;2023-03-01T04:29:36;32.72;;;18.20;;
809;SDS011;387;48.772;9.186;2023-03-01T04:32:02;42.73;;;17.60;;
809;SDS011;387;48.772;9.186;2023-03-01T04:34:28;34.20;;;16.70;;
809;SDS011;387;48.772;9.186;2023-03-01T04:36:54;31.95;;;16.60;;
809;SDS011;387;48.772;9.186;2023-03-01T04:39:20;41.63;;;17.50;;
809;SDS011;387;48.772;9.186;2023-03-01T04:41:46;38.07;;;18.10;;
809;SDS011;387;48.772;9.186;2023-03-01T04:44:11;35.45;;;15.57;;
809;SDS011;387;48.772;9.186;2023-03-01T04:46:37;41.17;;;17.97;;
809;SDS011;387;48.772;9.186;2023-03-01T04:49:03;32.67;;;17.67;;
809;SDS011;387;48.772;9.186;2023-03-01T04:51:28;36.37;;;16.93;;
809;SDS011;387;48.772;9.186;2023-03-01T04:53:54;35.53;;;16.27;;
809;SDS011;387;48.772;9.186;2023-03-01T04:56:20;29.60;;;15.50;;
809;SDS011;387;48.772;9.186;2023-03-01T04:58:48;38.40;;;16.42;;
809;SDS011;387;48.772;9.186;2023-03-01T05:01:15;36.85;;;16.92;;
809;SDS011;387;48.772;9.186;2023-03-01T05:03:43;36.90;;;15.90;;
809;SDS011;387;48.772;9.186;2023-03-01T05:06:10;37.15;;;17.55;;
809;SDS011;387;48.772;9.186;2023-03-01T05:08:39;45.45;;;18.38;;
809;SDS011;387;48.772;9.186;2023-03-01T05:11:07;38.22;;;16.70;;
809;SDS011;387;48.772;9.186;2023-03-01T05:13:33;32.88;;;16.50;;
809;SDS011;387;48.772;9.186;2023-03-01T05:16:00;37.15;;;17.20;;
809;SDS011;387;48.772;9.186;2023-03-01T05:18:28;42.25;;;18.95;;
809;SDS011;387;48.772;9.186;2023-03-01T05:20:55;41.60;;;17.80;;
809;SDS011;387;48.772;9.186;2023-03-01T05:23:26;38.78;;;17.95;;
809;SDS011;387;48.772;9.186;2023-03-01T05:25:52;37.20;;;17.10;;
809;SDS011;387;48.772;9.186;2023-03-01T05:28:18;38.40;;;17.87;;
809;SDS011;387;48.772;9.186;2023-03-01T05:30:45;42.28;;;18.10;;
809;SDS011;387;48.772;9.186;2023-03-01T05:33:11;38.35;;;17.50;;
809;SDS011;387;48.772;9.186;2023-03-01T05:35:43;34.38;;;16.92;;
809;SDS011;387;48.772;9.186;2023-03-01T05:38:10;37.42;;;16.60;;
809;SDS011;387;48.772;9.186;2023-03-01T05:40:43;40.25;;;17.85;;
809;SDS011;387;48.772;9.186;2023-03-01T05:43:11;39.33;;;19.70;;
809;SDS011;387;48.772;9.186;2023-03-01T05:45:39;35.50;;;18.17;;
809;SDS011;387;48.772;9.186;2023-03-01T05:48:05;32.90;;;16.52;;
809;SDS011;387;48.772;9.186;2023-03-01T05:50:32;40.92;;;18.67;;
809;SDS011;387;48.772;9.186;2023-03-01T05:53:05;41.25;;;19.38;;
809;SDS011;387;48.772;9.186;2023-03-01T05:55:34;37.03;;;16.85;;
809;SDS011;387;48.772;9.186;2023-03-01T05:58:01;35.63;;;16.02;;
809;SDS011;387;48.772;9.186;2023-03-01T06:00:29;40.00;;;18.35;;
809;SDS011;387;48.772;9.186;2023-03-01T06:02:55;42.55;;;18.85;;
809;SDS011;387;48.772;9.186;2023-03-01T06:05:22;40.25;;;17.77;;
809;SDS011;387;48.772;9.186;2023-03-01T06:07:48;35.17;;;16.37;;
809;SDS011;387;48.772;9.186;2023-03-01T06:10:15;39.30;;;17.48;;
809;SDS011;387;48.772;9.186;2023-03-01T06:12:42;43.42;;;18.38;;
809;SDS011;387;48.772;9.186;2023-03-01T06:15:09;39.67;;;19.02;;
809;SDS011;387;48.772;9.186;2023-03-01T06:17:37;42.17;;;18.15;;
809;SDS011;387;48.772;9.186;2023-03-01T06:20:06;34.05;;;16.70;;
809;SDS011;387;48.772;9.186;2023-03-01T06:22:35;41.65;;;17.65;;
809;SDS011;387;48.772;9.186;2023-03-01T06:25:00;41.47;;;17.63;;
809;SDS011;387;48.772;9.186;2023-03-01T06:27:26;42.13;;;18.67;;
809;SDS011;387;48.772;9.186;2023-03-01T06:29:52;37.80;;;17.47;;
809;SDS011;387;48.772;9.186;2023-03-01T06:32:17;32.70;;;17.13;;
809;SDS011;387;48.772;9.186;2023-03-01T06:34:43;44.90;;;16.80;;
809;SDS011;387;48.772;9.186;2023-03-01T06:37:09;38.87;;;16.97;;
809;SDS011;387;48.772;9.186;2023-03-01T06:39:34;34.70;;;17.50;;
809;SDS011;387;48.772;9.186;2023-03-01T06:42:00;40.33;;;17.77;;
809;SDS011;387;48.772;9.186;2023-03-01T06:44:26;49.07;;;19.07;;
809;SDS011;387;48.772;9.186;2023-03-01T06:46:51;45.30;;;19.63;;
809;SDS011;387;48.772;9.186;2023-03-01T06:49:17;36.93;;;18.47;;
809;SDS011;387;48.772;9.186;2023-03-01T06:51:43;39.30;;;17.83;;
809;SDS011;387;48.772;9.186;2023-03-01T06:54:09;39.40;;;17.60;;
809;SDS011;387;48.772;9.186;2023-03-01T06:56:35;38.13;;;16.83;;
809;SDS011;387;48.772;9.186;2023-03-01T06:59:01;33.60;;;16.40;;
809;SDS011;387;48.772;9.186;2023-03-01T07:01:27;39.95;;;17.63;;
809;SDS011;387;48.772;9.186;2023-03-01T07:03:53;39.33;;;19.63;;
809;SDS011;387;48.772;9.186;2023-03-01T07:06:19;48.20;;;18.80;;
809;SDS011;387;48.772;9.186;2023-03-01T07:08:45;39.53;;;18.83;;
809;SDS011;387;48.772;9.186;2023-03-01T07:11:11;37.57;;;17.17;;
809;SDS011;387;48.772;9.186;2023-03-01T07:13:37;39.30;;;18.03;;
809;SDS011;387;48.772;9.186;2023-03-01T07:16:02;40.17;;;18.60;;
809;SDS011;387;48.772;9.186;2023-03-01T07:18:28;39.13;;;19.50;;
809;SDS011;387;48.772;9.186;2023-03-01T07:20:54;39.63;;;18.30;;
809;SDS011;387;48.772;9.186;2023-03-01T07:23:19;50.67;;;19.63;;
809;SDS011;387;48.772;9.186;2023-03-01T07:25:50;37.23;;;17.33;;
809;SDS011;387;48.772;9.186;2023-03-01T07:28:18;43.25;;;19.98;;
809;SDS011;387;48.772;9.186;2023-03-01T07:30:43;37.97;;;17.30;;
809;SDS011;387;48.772;9.186;2023-03-01T07:33:09;39.90;;;17.92;;
809;SDS011;387;48.772;9.186;2023-03-01T07:35:35;40.50;;;18.87;;
809;SDS011;387;48.772;9.186;2023-03-01T07:38:01;40.00;;;18.00;;
809;SDS011;387;48.772;9.186;2023-03-01T07:40:26;44.47;;;19.77;;
809;SDS011;387;48.772;9.186;2023-03-01T07:42:57;37.03;;;18.40;;
809;SDS011;387;48.772;9.186;2023-03-01T07:45:27;37.15;;;18.15;;
809;SDS011;387;48.772;9.186;2023-03-01T07:47:53;37.08;;;18.65;;
809;SDS011;387;48.772;9.186;2023-03-01T07:50:20;49.78;;;21.20;;
809;SDS011;387;48.772;9.186;2023-03-01T07:52:46;37.42;;;18.30;;
809;SDS011;387;48.772;9.186;2023-03-01T07:55:13;43.72;;;18.55;;
809;SDS011;387;48.772;9.186;2023-03-01T07:57:39;40.70;;;18.27;;
809;SDS011;387;48.772;9.186;2023-03-01T08:00:05;41.90;;;19.13;;
809;SDS011;387;48.772;9.186;2023-03-01T08:02:31;40.53;;;18.00;;
809;SDS011;387;48.772;9.186;2023-03-01T08:04:57;42.40;;;18.50;;
809;SDS011;387;48.772;9.186;2023-03-01T08:07:22;41.20;;;18.93;;
809;SDS011;387;48.772;9.186;2023-03-01T08:09:48;44.07;;;18.03;;
809;SDS011;387;48.772;9.186;2023-03-01T08:12:13;48.37;;;19.70;;
809;SDS011;387;48.772;9.186;2023-03-01T08:14:41;40.42;;;18.73;;
809;SDS011;387;48.772;9.186;2023-03-01T08:17:06;43.50;;;18.83;;
809;SDS011;387;48.772;9.186;2023-03-01T08:19:32;36.57;;;18.70;;
809;SDS011;387;48.772;9.186;2023-03-01T08:21:59;38.78;;;18.85;;
809;SDS011;387;48.772;9.186;2023-03-01T08:24:26;48.30;;;19.92;;
809;SDS011;387;48.772;9.186;2023-03-01T08:26:52;44.10;;;20.37;;
809;SDS011;387;48.772;9.186;2023-03-01T08:29:18;46.23;;;20.20;;
809;SDS011;387;48.772;9.186;2023-03-01T08:31:44;42.23;;;18.37;;
809;SDS011;387;48.772;9.186;2023-03-01T08:34:11;38.40;;;18.90;;
809;SDS011;387;48.772;9.186;2023-03-01T08:36:40;42.83;;;18.97;;
809;SDS011;387;48.772;9.186;2023-03-01T08:39:07;39.35;;;18.70;;
809;SDS011;387;48.772;9.186;2023-03-01T08:41:34;37.30;;;17.92;;
809;SDS011;387;48.772;9.186;2023-03-01T08:44:00;43.10;;;18.20;;
809;SDS011;387;48.772;9.186;2023-03-01T08:46:29;41.60;;;18.77;;
809;SDS011;387;48.772;9.186;2023-03-01T08:48:57;43.75;;;19.60;;
809;SDS011;387;48.772;9.186;2023-03-01T08:51:23;38.40;;;17.00;;
809;SDS011;387;48.772;9.186;2023-03-01T08:53:50;45.08;;;18.88;;
809;SDS011;387;48.772;9.186;2023-03-01T08:56:16;41.90;;;19.33;;
809;SDS011;387;48.772;9.186;2023-03-01T08:58:44;43.83;;;19.73;;
809;SDS011;387;48.772;9.186;2023-03-01T09:01:11;41.38;;;19.10;;
809;SDS011;387;48.772;9.186;2023-03-01T09:03:39;38.88;;;20.20;;
809;SDS011;387;48.772;9.186;2023-03-01T09:06:06;48.43;;;19.17;;
809;SDS011;387;48.772;9.186;2023-03-01T09:08:38;41.28;;;18.67;;
809;SDS011;387;48.772;9.186;2023-03-01T09:11:07;44.80;;;19.02;;
809;SDS011;387;48.772;9.186;2023-03-01T09:13:34;40.50;;;19.02;;
809;SDS011;387;48.772;9.186;2023-03-01T09:16:01;40.43;;;19.23;;
809;SDS011;387;48.772;9.186;2023-03-01T09:18:27;41.42;;;20.08;;
809;SDS011;387;48.772;9.186;2023-03-01T09:21:00;37.80;;;18.83;;
809;SDS011;387;48.772;9.186;2023-03-01T09:23:40;34.58;;;18.55;;
809;SDS011;387;48.772;9.186;2023-03-01T09:26:14;46.83;;;20.00;;
809;SDS011;387;48.772;9.186;2023-03-01T09:28:46;44.23;;;20.27;;
809;SDS011;387;48.772;9.186;2023-03-01T09:31:13;45.30;;;18.02;;
809;SDS011;387;48.772;9.186;2023-03-01T09:33:40;39.35;;;18.20;;
809;SDS011;387;48.772;9.186;2023-03-01T09:36:08;38.40;;;18.90;;
809;SDS011;387;48.772;9.186;2023-03-01T09:38:36;53.50;;;19.70;;
809;SDS011;387;48.772;9.186;2023-03-01T09:41:02;41.63;;;19.27;;
809;SDS011;387;48.772;9.186;2023-03-01T09:43:41;43.40;;;19.83;;
809;SDS011;387;48.772;9.186;2023-03-01T09:46:11;42.67;;;19.87;;
809;SDS011;387;48.772;9.186;2023-03-01T09:49:02;38.77;;;19.40;;
809;SDS011;387;48.772;9.186;2023-03-01T09:51:30;48.80;;;20.23;;
809;SDS011;387;48.772;9.186;2023-03-01T09:54:00;45.63;;;19.27;;
809;SDS011;387;48.772;9.186;2023-03-01T09:56:29;44.27;;;19.10;;
809;SDS011;387;48.772;9.186;2023-03-01T09:59:11;37.37;;;18.13;;
809;SDS011;387;48.772;9.186;2023-03-01T10:04:35;42.63;;;18.33;;
809;SDS011;387;48.772;9.186;2023-03-01T10:09:46;42.37;;;19.73;;
809;SDS011;387;48.772;9.186;2023-03-01T10:12:26;41.90;;;18.93;;
809;SDS011;387;48.772;9.186;2023-03-01T10:15:00;39.13;;;19.20;;
809;SDS011;387;48.772;9.186;2023-03-01T10:22:48;32.90;;;16.77;;
809;SDS011;387;48.772;9.186;2023-03-01T10:26:03;39.27;;;18.67;;
809;SDS011;387;48.772;9.186;2023-03-01T10:30:50;37.80;;;17.30;;
809;SDS011;387;48.772;9.186;2023-03-01T10:33:35;32.27;;;16.40;;
809;SDS011;387;48.772;9.186;2023-03-01T10:36:04;32.93;;;16.70;;
809;SDS011;387;48.772;9.186;2023-03-01T10:38:31;34.20;;;17.33;;
809;SDS011;387;48.772;9.186;2023-03-01T10:41:18;34.83;;;17.43;;
809;SDS011;387;48.772;9.186;2023-03-01T10:43:52;34.77;;;16.97;;
809;SDS011;387;48.772;9.186;2023-03-01T10:49:13;32.60;;;16.37;;
809;SDS011;387;48.772;9.186;2023-03-01T10:51:45;34.63;;;16.33;;
809;SDS011;387;48.772;9.186;2023-03-01T10:54:16;29.73;;;15.73;;
809;SDS011;387;48.772;9.186;2023-03-01T10:56:57;34.80;;;16.27;;
809;SDS011;387;48.772;9.186;2023-03-01T10:59:32;32.53;;;16.70;;
809;SDS011;387;48.772;9.186;2023-03-01T11:05:00;36.33;;;17.47;;
809;SDS011;387;48.772;9.186;2023-03-01T11:10:25;33.00;;;15.63;;
809;SDS011;387;48.772;9.186;2023-03-01T11:13:06;34.83;;;17.30;;
809;SDS011;387;48.772;9.186;2023-03-01T11:15:40;35.10;;;15.97;;
809;SDS011;387;48.772;9.186;2023-03-01T11:18:15;37.23;;;15.70;;
809;SDS011;387;48.772;9.186;2023-03-01T11:20:44;33.43;;;15.43;;
809;SDS011;387;48.772;9.186;2023-03-01T11:23:13;29.00;;;15.33;;
809;SDS011;387;48.772;9.186;2023-03-01T11:25:42;33.23;;;16.73;;
809;SDS011;387;48.772;9.186;2023-03-01T11:28:19;34.20;;;16.60;;
809;SDS011;387;48.772;9.186;2023-03-01T11:30:51;34.83;;;15.70;;
809;SDS011;387;48.772;9.186;2023-03-01T11:39:42;32.83;;;15.80;;
809;SDS011;387;48.772;9.186;2023-03-01T11:45:11;32.43;;;16.30;;
809;SDS011;387;48.772;9.186;2023-03-01T11:56:02;29.90;;;15.93;;
809;SDS011;387;48.772;9.186;2023-03-01T11:58:38;43.47;;;17.97;;
809;SDS011;387;48.772;9.186;2023-03-01T12:04:09;30.40;;;15.53;;
809;SDS011;387;48.772;9.186;2023-03-01T12:06:53;42.03;;;17.80;;
809;SDS011;387;48.772;9.186;2023-03-01T12:20:18;30.13;;;15.63;;
809;SDS011;387;48.772;9.186;2023-03-01T12:23:29;31.10;;;15.80;;
809;SDS011;387;48.772;9.186;2023-03-01T12:34:21;30.67;;;14.70;;
809;SDS011;387;48.772;9.186;2023-03-01T12:39:42;27.90;;;14.77;;
809;SDS011;387;48.772;9.186;2023-03-01T12:50:26;31.00;;;15.60;;
809;SDS011;387;48.772;9.186;2023-03-01T12:53:22;28.00;;;14.30;;
809;SDS011;387;48.772;9.186;2023-03-01T12:56:05;34.63;;;15.20;;
809;SDS011;387;48.772;9.186;2023-03-01T13:01:39;33.07;;;16.07;;
809;SDS011;387;48.772;9.186;2023-03-01T13:17:55;28.10;;;13.77;;
809;SDS011;387;48.772;9.186;2023-03-01T13:21:06;27.43;;;14.00;;
809;SDS011;387;48.772;9.186;2023-03-01T13:23:12;30.50;;;14.43;;
809;SDS011;387;48.772;9.186;2023-03-01T13:28:36;27.27;;;14.60;;
809;SDS011;387;48.772;9.186;2023-03-01T13:33:48;31.10;;;15.40;;
809;SDS011;387;48.772;9.186;2023-03-01T13:44:30;33.03;;;15.70;;
809;SDS011;387;48.772;9.186;2023-03-01T13:47:06;26.73;;;13.70;;
809;SDS011;387;48.772;9.186;2023-03-01T13:49:48;34.20;;;16.33;;
809;SDS011;387;48.772;9.186;2023-03-01T13:52:32;32.90;;;15.90;;
809;SDS011;387;48.772;9.186;2023-03-01T13:55:16;31.63;;;16.77;;
809;SDS011;387;48.772;9.186;2023-03-01T13:57:50;32.50;;;16.10;;
809;SDS011;387;48.772;9.186;2023-03-01T14:03:13;31.40;;;15.97;;
809;SDS011;387;48.772;9.186;2023-03-01T14:05:56;33.90;;;16.33;;
809;SDS011;387;48.772;9.186;2023-03-01T14:08:25;29.50;;;16.50;;
809;SDS011;387;48.772;9.186;2023-03-01T14:21:14;34.00;;;17.13;;
809;SDS011;387;48.772;9.186;2023-03-01T14:23:41;36.30;;;17.10;;
809;SDS011;387;48.772;9.186;2023-03-01T14:26:07;36.37;;;17.80;;
809;SDS011;387;48.772;9.186;2023-03-01T14:28:34;37.50;;;17.67;;
809;SDS011;387;48.772;9.186;2023-03-01T14:31:05;38.77;;;18.20;;
809;SDS011;387;48.772;9.186;2023-03-01T14:34:02;32.10;;;16.90;;
809;SDS011;387;48.772;9.186;2023-03-01T14:36:29;36.70;;;18.00;;
809;SDS011;387;48.772;9.186;2023-03-01T14:38:56;41.13;;;17.80;;
809;SDS011;387;48.772;9.186;2023-03-01T14:41:30;34.57;;;18.03;;
809;SDS011;387;48.772;9.186;2023-03-01T14:44:00;38.53;;;18.13;;
809;SDS011;387;48.772;9.186;2023-03-01T14:46:38;37.03;;;17.30;;
809;SDS011;387;48.772;9.186;2023-03-01T14:49:10;33.53;;;17.17;;
809;SDS011;387;48.772;9.186;2023-03-01T14:51:40;33.63;;;17.67;;
809;SDS011;387;48.772;9.186;2023-03-01T14:54:21;36.20;;;17.50;;
809;SDS011;387;48.772;9.186;2023-03-01T14:56:53;34.63;;;17.20;;
809;SDS011;387;48.772;9.186;2023-03-01T14:59:22;30.70;;;16.47;;
809;SDS011;387;48.772;9.186;2023-03-01T15:01:49;34.70;;;16.37;;
809;SDS011;387;48.772;9.186;2023-03-01T15:04:18;33.83;;;16.73;;
809;SDS011;387;48.772;9.186;2023-03-01T15:06:44;33.23;;;17.10;;
809;SDS011;387;48.772;9.186;2023-03-01T15:09:13;35.63;;;18.00;;
809;SDS011;387;48.772;9.186;2023-03-01T15:11:41;46.33;;;17.63;;
809;SDS011;387;48.772;9.186;2023-03-01T15:19:54;38.93;;;17.20;;
809;SDS011;387;48.772;9.186;2023-03-01T15:22:20;38.57;;;19.30;;
809;SDS011;387;48.772;9.186;2023-03-01T15:24:47;31.20;;;16.40;;
809;SDS011;387;48.772;9.186;2023-03-01T15:27:15;34.20;;;16.47;;
809;SDS011;387;48.772;9.186;2023-03-01T15:29:47;41.83;;;19.07;;
809;SDS011;387;48.772;9.186;2023-03-01T15:32:31;41.60;;;18.23;;
809;SDS011;387;48.772;9.186;2023-03-01T15:34:59;41.80;;;18.57;;
809;SDS011;387;48.772;9.186;2023-03-01T15:37:45;37.17;;;17.50;;
809;SDS011;387;48.772;9.186;2023-03-01T15:40:25;38.67;;;16.57;;
809;SDS011;387;48.772;9.186;2023-03-01T15:42:58;33.17;;;16.33;;
809;SDS011;387;48.772;9.186;2023-03-01T15:45:29;30.70;;;16.23;;
809;SDS011;387;48.772;9.186;2023-03-01T15:48:00;33.13;;;16.40;;
809;SDS011;387;48.772;9.186;2023-03-01T15:50:29;36.40;;;17.13;;
809;SDS011;387;48.772;9.186;2023-03-01T15:52:58;39.13;;;17.57;;
809;SDS011;387;48.772;9.186;2023-03-01T15:57:58;36.73;;;18.70;;
809;SDS011;387;48.772;9.186;2023-03-01T16:00:47;38.10;;;16.90;;
809;SDS011;387;48.772;9.186;2023-03-01T16:03:15;34.80;;;16.13;;
809;SDS011;387;48.772;9.186;2023-03-01T16:05:46;29.27;;;16.03;;
809;SDS011;387;48.772;9.186;2023-03-01T16:08:13;37.77;;;17.80;;
809;SDS011;387;48.772;9.186;2023-03-01T16:10:39;35.23;;;17.73;;
809;SDS011;387;48.772;9.186;2023-03-01T16:13:08;38.80;;;17.87;;
809;SDS011;387;48.772;9.186;2023-03-01T16:15:35;34.20;;;16.80;;
809;SDS011;387;48.772;9.186;2023-03-01T16:18:01;34.27;;;16.43;;
809;SDS011;387;48.772;9.186;2023-03-01T16:20:28;32.53;;;16.97;;
809;SDS011;387;48.772;9.186;2023-03-01T16:22:55;41.03;;;17.93;;
809;SDS011;387;48.772;9.186;2023-03-01T16:25:23;32.00;;;15.57;;
809;SDS011;387;48.772;9.186;2023-03-01T16:27:49;32.40;;;16.30;;
809;SDS011;387;48.772;9.186;2023-03-01T16:30:16;32.00;;;16.00;;
809;SDS011;387;48.772;9.186;2023-03-01T16:32:44;34.63;;;17.57;;
809;SDS011;387;48.772;9.186;2023-03-01T16:35:11;36.17;;;17.30;;
809;SDS011;387;48.772;9.186;2023-03-01T16:37:37;37.77;;;17.43;;
809;SDS011;387;48.772;9.186;2023-03-01T16:40:03;30.60;;;15.23;;
809;SDS011;387;48.772;9.186;2023-03-01T16:42:34;33.63;;;16.20;;
809;SDS011;387;48.772;9.186;2023-03-01T16:45:00;32.43;;;17.37;;
809;SDS011;387;48.772;9.186;2023-03-01T16:47:26;36.30;;;16.37;;
809;SDS011;387;48.772;9.186;2023-03-01T16:49:52;37.17;;;16.33;;
809;SDS011;387;48.772;9.186;2023-03-01T16:52:19;36.50;;;16.77;;
809;SDS011;387;48.772;9.186;2023-03-01T16:54:45;36.30;;;17.40;;
809;SDS011;387;48.772;9.186;2023-03-01T16:57:11;34.10;;;16.30;;
809;SDS011;387;48.772;9.186;2023-03-01T16:59:36;40.03;;;17.77;;
809;SDS011;387;48.772;9.186;2023-03-01T17:02:05;35.17;;;15.20;;
809;SDS011;387;48.772;9.186;2023-03-01T17:04:34;34.47;;;16.17;;
809;SDS011;387;48.772;9.186;2023-03-01T17:07:00;30.90;;;16.60;;
809;SDS011;387;48.772;9.186;2023-03-01T17:09:26;37.77;;;16.10;;
809;SDS011;387;48.772;9.186;2023-03-01T17:11:51;30.77;;;16.30;;
809;SDS011;387;48.772;9.186;2023-03-01T17:14:17;32.67;;;17.03;;
809;SDS011;387;48.772;9.186;2023-03-01T17:16:43;34.60;;;15.40;;
809;SDS011;387;48.772;9.186;2023-03-01T17:19:09;34.40;;;16.57;;
809;SDS011;387;48.772;9.186;2023-03-01T17:21:35;36.10;;;16.07;;
809;SDS011;387;48.772;9.186;2023-03-01T17:24:01;28.20;;;15.50;;
809;SDS011;387;48.772;9.186;2023-03-01T17:26:28;39.07;;;18.23;;
809;SDS011;387;48.772;9.186;2023-03-01T17:28:54;40.00;;;17.60;;
809;SDS011;387;48.772;9.186;2023-03-01T17:31:21;37.63;;;16.03;;
809;SDS011;387;48.772;9.186;2023-03-01T17:33:48;36.33;;;17.43;;
809;SDS011;387;48.772;9.186;2023-03-01T17:36:14;32.60;;;16.83;;
809;SDS011;387;48.772;9.186;2023-03-01T17:38:40;35.37;;;16.10;;
809;SDS011;387;48.772;9.186;2023-03-01T17:41:06;33.50;;;15.80;;
809;SDS011;387;48.772;9.186;2023-03-01T17:43:34;32.23;;;16.07;;
809;SDS011;387;48.772;9.186;2023-03-01T17:46:00;30.73;;;16.67;;